Airport View

Enter AWOS ICAO identifier for current METAR.

ex. KFNL

KBFD 040453Z AUTO 13003KT 10SM SCT022 BKN029 OVC039 19/16 A3002 RMK AO2 SLP151 T01890161 402560167

4 Aug 2020 05:06

Frequency: 133.825

Phone: 814-368-2581

Other Area AWOS: KOYM - KOLE - KELZ - KJHW

TAF AMD KBFD 040404Z 0404/0424 VRB03KT P6SM VCSH BKN025 OVC120 FM040800 15003KT P6SM OVC015 FM041500 09003KT P6SM -SHRA OVC025 FM041900 29005KT P6SM -SHRA OVC035